createdAt,value
2023-03-17T00:00:49.291Z,0.00
2023-03-17T00:01:49.271Z,0.00
2023-03-17T00:02:49.318Z,0.00
2023-03-17T00:03:49.384Z,0.00
2023-03-17T00:04:49.243Z,0.00
2023-03-17T00:05:49.234Z,0.00
2023-03-17T00:06:49.215Z,0.00
2023-03-17T00:07:49.221Z,0.00
2023-03-17T00:08:49.194Z,0.00
2023-03-17T00:09:49.189Z,0.00
2023-03-17T00:10:49.175Z,0.00
2023-03-17T00:11:49.230Z,0.00
2023-03-17T00:12:49.153Z,0.00
2023-03-17T00:13:49.147Z,0.00
2023-03-17T00:14:49.135Z,0.00
2023-03-17T00:15:49.136Z,0.00
2023-03-17T00:16:49.112Z,0.00
2023-03-17T00:17:49.109Z,0.00
2023-03-17T00:18:49.097Z,0.00
2023-03-17T00:19:49.089Z,0.00
2023-03-17T00:20:49.073Z,0.00
2023-03-17T00:21:49.073Z,0.00
2023-03-17T00:22:49.062Z,0.00
2023-03-17T00:23:49.047Z,0.00
2023-03-17T00:24:49.044Z,0.00
2023-03-17T00:25:49.088Z,0.00
2023-03-17T00:26:49.012Z,0.00
2023-03-17T00:27:49.021Z,0.00
2023-03-17T00:28:48.985Z,0.00
2023-03-17T00:29:48.982Z,0.00
2023-03-17T00:30:48.970Z,0.00
2023-03-17T00:31:48.963Z,0.00
2023-03-17T00:32:48.957Z,0.00
2023-03-17T00:33:48.940Z,0.00
2023-03-17T00:34:48.929Z,0.00
2023-03-17T00:35:48.936Z,0.00
2023-03-17T00:36:48.907Z,0.00
2023-03-17T00:37:48.910Z,0.00
2023-03-17T00:38:48.882Z,0.00
2023-03-17T00:39:48.880Z,0.00
2023-03-17T00:40:49.460Z,0.00
2023-03-17T00:41:50.955Z,0.00
2023-03-17T00:42:48.850Z,0.00
2023-03-17T00:43:48.838Z,0.00
2023-03-17T00:44:48.826Z,0.00
2023-03-17T00:45:48.817Z,0.00
2023-03-17T00:46:48.919Z,0.00
2023-03-17T00:47:48.799Z,0.00
2023-03-17T00:48:48.790Z,0.00
2023-03-17T00:49:48.772Z,0.00
2023-03-17T00:50:48.765Z,0.00
2023-03-17T00:51:48.788Z,0.00
2023-03-17T00:52:49.236Z,0.00
2023-03-17T00:53:48.733Z,0.00
2023-03-17T00:54:48.719Z,0.00
2023-03-17T00:55:48.712Z,0.00
2023-03-17T00:56:48.699Z,0.00
2023-03-17T00:57:49.016Z,0.00
2023-03-17T00:58:48.692Z,0.00
2023-03-17T00:59:48.666Z,0.00
2023-03-17T01:00:48.672Z,0.00
2023-03-17T01:01:48.709Z,0.00
2023-03-17T01:02:48.829Z,0.00
2023-03-17T01:03:48.642Z,0.00
2023-03-17T01:04:59.568Z,0.00
2023-03-17T01:05:48.612Z,0.00
2023-03-17T01:06:48.601Z,0.00
2023-03-17T01:07:48.918Z,0.00
2023-03-17T01:08:48.574Z,0.00
2023-03-17T01:09:48.561Z,0.00
2023-03-17T01:10:48.560Z,0.00
2023-03-17T01:11:48.575Z,0.00
2023-03-17T01:12:48.888Z,0.00
2023-03-17T01:13:48.522Z,0.00
2023-03-17T01:14:48.512Z,0.00
2023-03-17T01:15:48.513Z,0.00
2023-03-17T01:16:48.566Z,0.00
2023-03-17T01:17:48.838Z,0.00
2023-03-17T01:18:48.575Z,0.00
2023-03-17T01:19:48.460Z,0.00
2023-03-17T01:20:48.454Z,0.00
2023-03-17T01:21:48.437Z,0.00
2023-03-17T01:22:48.745Z,0.00
2023-03-17T01:23:48.420Z,0.00
2023-03-17T01:24:48.417Z,0.00
2023-03-17T01:25:48.404Z,0.00
2023-03-17T01:26:48.397Z,0.00
2023-03-17T01:27:49.165Z,0.00
2023-03-17T01:28:48.371Z,0.00
2023-03-17T01:29:48.361Z,0.00
2023-03-17T01:30:48.354Z,0.00
2023-03-17T01:31:48.403Z,0.00
2023-03-17T01:32:48.807Z,0.00
2023-03-17T01:33:48.315Z,0.00
2023-03-17T01:34:48.316Z,0.00
2023-03-17T01:35:48.347Z,0.00
2023-03-17T01:36:48.290Z,0.00
2023-03-17T01:37:49.063Z,0.00
2023-03-17T01:38:48.288Z,0.00
2023-03-17T01:39:48.266Z,0.00
2023-03-17T01:40:48.250Z,0.00
2023-03-17T01:41:48.237Z,0.00
2023-03-17T01:42:48.397Z,0.00
2023-03-17T01:43:48.220Z,0.00
2023-03-17T01:44:48.206Z,0.00
2023-03-17T01:45:48.217Z,0.00
2023-03-17T01:46:48.186Z,0.00
2023-03-17T01:47:48.961Z,0.00
2023-03-17T01:48:48.168Z,0.00
2023-03-17T01:49:48.148Z,0.00
2023-03-17T01:50:48.145Z,0.00
2023-03-17T01:51:48.174Z,0.00
2023-03-17T01:52:48.433Z,0.00
2023-03-17T01:53:48.135Z,0.00
2023-03-17T01:54:48.112Z,0.00
2023-03-17T01:55:48.086Z,0.00
2023-03-17T01:56:48.085Z,0.00
2023-03-17T01:57:48.806Z,0.00
2023-03-17T01:58:48.063Z,0.00
2023-03-17T01:59:48.047Z,0.00
2023-03-17T02:00:48.104Z,0.00
2023-03-17T02:01:48.029Z,0.00
2023-03-17T02:02:48.396Z,0.00
2023-03-17T02:03:48.032Z,0.00
2023-03-17T02:04:47.997Z,0.00
2023-03-17T02:05:47.993Z,0.00
2023-03-17T02:06:57.572Z,0.00
2023-03-17T02:07:48.693Z,0.00
2023-03-17T02:08:47.958Z,0.00
2023-03-17T02:09:48.052Z,0.00
2023-03-17T02:10:47.937Z,0.00
2023-03-17T02:11:47.936Z,0.00
2023-03-17T02:12:48.242Z,0.00
2023-03-17T02:13:47.917Z,0.00
2023-03-17T02:14:47.895Z,0.00
2023-03-17T02:15:47.889Z,0.00
2023-03-17T02:16:47.908Z,0.00
2023-03-17T02:17:48.230Z,0.00
2023-03-17T02:18:47.863Z,0.00
2023-03-17T02:19:47.845Z,0.00
2023-03-17T02:20:47.835Z,0.00
2023-03-17T02:21:47.823Z,0.00
2023-03-17T02:22:47.812Z,0.00
2023-03-17T02:23:47.813Z,0.00
2023-03-17T02:24:47.802Z,0.00
2023-03-17T02:25:47.782Z,0.00
2023-03-17T02:26:47.773Z,0.00
2023-03-17T02:27:47.771Z,0.00
2023-03-17T02:28:47.750Z,0.00
2023-03-17T02:29:47.746Z,0.00
2023-03-17T02:30:47.741Z,0.00
2023-03-17T02:31:47.915Z,0.00
2023-03-17T02:32:47.774Z,0.00
2023-03-17T02:33:47.708Z,0.00
2023-03-17T02:34:47.696Z,0.00
2023-03-17T02:35:47.734Z,0.00
2023-03-17T02:36:47.778Z,0.00
2023-03-17T02:37:47.665Z,0.00
2023-03-17T02:38:47.652Z,0.00
2023-03-17T02:39:47.644Z,0.00
2023-03-17T02:40:47.629Z,0.00
2023-03-17T02:41:47.622Z,0.00
2023-03-17T02:42:47.610Z,0.00
2023-03-17T02:43:47.607Z,0.00
2023-03-17T02:44:47.589Z,0.00
2023-03-17T02:45:47.603Z,0.00
2023-03-17T02:46:47.565Z,0.00
2023-03-17T02:47:47.558Z,0.00
2023-03-17T02:48:47.555Z,0.00
2023-03-17T02:49:47.538Z,0.00
2023-03-17T02:50:47.539Z,0.00
2023-03-17T02:51:47.522Z,0.00
2023-03-17T02:52:47.507Z,0.00
2023-03-17T02:53:47.509Z,0.00
2023-03-17T02:54:47.491Z,0.00
2023-03-17T02:55:47.499Z,0.00
2023-03-17T02:56:47.467Z,0.00
2023-03-17T02:57:47.472Z,0.00
2023-03-17T02:58:47.449Z,0.00
2023-03-17T02:59:47.442Z,0.00
2023-03-17T03:00:47.425Z,0.00
2023-03-17T03:01:47.451Z,0.00
2023-03-17T03:02:47.478Z,0.00
2023-03-17T03:03:47.401Z,0.00
2023-03-17T03:04:47.385Z,0.00
2023-03-17T03:05:47.373Z,0.00
2023-03-17T03:06:47.375Z,0.00
2023-03-17T03:07:47.359Z,0.00
2023-03-17T03:08:47.350Z,0.00
2023-03-17T03:09:47.344Z,0.00
2023-03-17T03:10:47.325Z,0.00
2023-03-17T03:11:47.319Z,0.00
2023-03-17T03:12:47.305Z,0.00
2023-03-17T03:13:47.313Z,0.00
2023-03-17T03:14:47.280Z,0.00
2023-03-17T03:15:47.290Z,0.00
2023-03-17T03:16:47.260Z,0.00
2023-03-17T03:17:47.255Z,0.00
2023-03-17T03:18:47.249Z,0.00
2023-03-17T03:19:47.245Z,0.00
2023-03-17T03:20:47.225Z,0.00
2023-03-17T03:21:47.215Z,0.00
2023-03-17T03:22:47.200Z,0.00
2023-03-17T03:23:47.204Z,0.00
2023-03-17T03:24:47.183Z,0.00
2023-03-17T03:25:47.184Z,0.00
2023-03-17T03:26:47.159Z,0.00
2023-03-17T03:27:47.149Z,0.00
2023-03-17T03:28:47.145Z,0.00
2023-03-17T03:29:47.151Z,0.00
2023-03-17T03:30:47.183Z,0.00
2023-03-17T03:31:47.113Z,0.00
2023-03-17T03:32:47.162Z,0.00
2023-03-17T03:33:47.100Z,0.00
2023-03-17T03:34:47.079Z,0.00
2023-03-17T03:35:47.097Z,0.00
2023-03-17T03:36:47.072Z,0.00
2023-03-17T03:37:47.050Z,0.00
2023-03-17T03:38:47.064Z,0.00
2023-03-17T03:39:47.029Z,0.00
2023-03-17T03:40:47.015Z,0.00
2023-03-17T03:41:47.006Z,0.00
2023-03-17T03:42:46.997Z,0.00
2023-03-17T03:43:47.008Z,0.00
2023-03-17T03:44:46.981Z,0.00
2023-03-17T03:45:46.961Z,0.00
2023-03-17T03:46:47.008Z,0.00
2023-03-17T03:47:46.945Z,0.00
2023-03-17T03:48:47.652Z,0.00
2023-03-17T03:49:46.929Z,0.00
2023-03-17T03:50:46.933Z,0.00
2023-03-17T03:51:46.905Z,0.00
2023-03-17T03:52:46.892Z,0.00
2023-03-17T03:53:47.735Z,0.00
2023-03-17T03:54:46.872Z,0.00
2023-03-17T03:55:46.867Z,0.00
2023-03-17T03:56:46.845Z,0.00
2023-03-17T03:57:46.844Z,0.00
2023-03-17T03:58:47.609Z,0.00
2023-03-17T03:59:46.819Z,0.00
2023-03-17T04:00:46.821Z,0.00
2023-03-17T04:01:46.804Z,0.00
2023-03-17T04:02:46.955Z,0.00
2023-03-17T04:03:47.110Z,0.00
2023-03-17T04:04:46.807Z,0.00
2023-03-17T04:05:46.759Z,0.00
2023-03-17T04:06:46.741Z,0.00
2023-03-17T04:07:46.736Z,0.00
2023-03-17T04:08:47.628Z,0.00
2023-03-17T04:09:46.723Z,0.00
2023-03-17T04:10:46.702Z,0.00
2023-03-17T04:11:46.697Z,0.00
2023-03-17T04:12:46.679Z,0.00
2023-03-17T04:13:47.058Z,0.00
2023-03-17T04:14:46.657Z,0.00
2023-03-17T04:15:46.662Z,0.00
2023-03-17T04:16:46.640Z,0.00
2023-03-17T04:17:46.632Z,0.00
2023-03-17T04:18:47.002Z,0.00
2023-03-17T04:19:46.614Z,0.00
2023-03-17T04:20:46.598Z,0.00
2023-03-17T04:21:46.621Z,0.00
2023-03-17T04:22:46.578Z,0.00
2023-03-17T04:23:46.876Z,0.00
2023-03-17T04:24:46.561Z,0.00
2023-03-17T04:25:46.548Z,0.00
2023-03-17T04:26:46.534Z,0.00
2023-03-17T04:27:46.532Z,0.00
2023-03-17T04:28:46.538Z,0.00
2023-03-17T04:29:46.517Z,0.00
2023-03-17T04:30:46.497Z,0.00
2023-03-17T04:31:46.536Z,0.00
2023-03-17T04:32:46.639Z,0.00
2023-03-17T04:33:46.857Z,0.00
2023-03-17T04:34:46.457Z,0.00
2023-03-17T04:35:46.484Z,0.00
2023-03-17T04:36:46.437Z,0.00
2023-03-17T04:37:46.434Z,0.00
2023-03-17T04:38:47.142Z,0.00
2023-03-17T04:39:46.414Z,0.00
2023-03-17T04:40:46.390Z,0.00
2023-03-17T04:41:46.397Z,0.00
2023-03-17T04:42:46.372Z,0.00
2023-03-17T04:43:46.742Z,0.00
2023-03-17T04:44:46.356Z,0.00
2023-03-17T04:45:46.379Z,0.00
2023-03-17T04:46:46.330Z,0.00
2023-03-17T04:47:46.365Z,0.00
2023-03-17T04:48:47.119Z,0.00
2023-03-17T04:49:46.306Z,0.00
2023-03-17T04:50:46.295Z,0.00
2023-03-17T04:51:46.283Z,0.00
2023-03-17T04:52:46.281Z,0.00
2023-03-17T04:53:46.265Z,0.00
2023-03-17T04:54:46.273Z,0.00
2023-03-17T04:55:46.255Z,0.00
2023-03-17T04:56:46.233Z,0.00
2023-03-17T04:57:46.230Z,0.00
2023-03-17T04:58:46.241Z,0.00
2023-03-17T04:59:46.157Z,1.00
2023-03-17T05:00:46.215Z,0.00
2023-03-17T05:01:46.146Z,1.00
2023-03-17T05:02:46.118Z,1.00
2023-03-17T05:03:46.128Z,1.00
2023-03-17T05:04:46.095Z,1.00
2023-03-17T05:05:46.089Z,2.00
2023-03-17T05:06:46.088Z,2.00
2023-03-17T05:07:46.072Z,1.00
2023-03-17T05:08:46.055Z,1.00
2023-03-17T05:09:46.068Z,2.00
2023-03-17T05:10:46.039Z,3.00
2023-03-17T05:11:46.040Z,6.00
2023-03-17T05:12:46.019Z,4.00
2023-03-17T05:13:46.017Z,2.00
2023-03-17T05:14:45.994Z,4.00
2023-03-17T05:15:45.991Z,5.00
2023-03-17T05:16:45.989Z,5.00
2023-03-17T05:17:45.977Z,7.00
2023-03-17T05:18:45.954Z,12.00
2023-03-17T05:19:45.959Z,18.00
2023-03-17T05:20:45.936Z,20.00
2023-03-17T05:21:45.924Z,22.00
2023-03-17T05:22:45.915Z,28.00
2023-03-17T05:23:45.922Z,35.00
2023-03-17T05:24:45.903Z,36.00
2023-03-17T05:25:45.911Z,42.00
2023-03-17T05:26:45.870Z,51.00
2023-03-17T05:27:45.868Z,59.00
2023-03-17T05:28:45.852Z,65.00
2023-03-17T05:29:45.852Z,73.00
2023-03-17T05:30:45.888Z,81.00
2023-03-17T05:31:45.826Z,89.00
2023-03-17T05:32:45.815Z,101.00
2023-03-17T05:33:45.806Z,110.00
2023-03-17T05:34:45.801Z,120.00
2023-03-17T05:35:45.825Z,124.00
2023-03-17T05:36:45.769Z,141.00
2023-03-17T05:37:45.765Z,154.00
2023-03-17T05:38:45.766Z,164.00
2023-03-17T05:39:45.743Z,177.00
2023-03-17T05:40:45.725Z,184.00
2023-03-17T05:41:45.742Z,201.00
2023-03-17T05:42:45.708Z,213.00
2023-03-17T05:43:45.696Z,228.00
2023-03-17T05:44:45.692Z,244.00
2023-03-17T05:45:45.704Z,265.00
2023-03-17T05:46:45.700Z,284.00
2023-03-17T05:47:45.699Z,302.00
2023-03-17T05:48:45.657Z,321.00
2023-03-17T05:49:45.648Z,339.00
2023-03-17T05:50:45.631Z,369.00
2023-03-17T05:51:45.617Z,391.00
2023-03-17T05:52:45.617Z,412.00
2023-03-17T05:53:45.599Z,436.00
2023-03-17T05:54:45.585Z,465.00
2023-03-17T05:55:45.580Z,486.00
2023-03-17T05:56:45.563Z,515.00
2023-03-17T05:57:45.583Z,549.00
2023-03-17T05:58:45.558Z,591.00
2023-03-17T05:59:45.543Z,625.00
2023-03-17T06:00:45.538Z,658.00
2023-03-17T06:01:45.521Z,691.00
2023-03-17T06:02:45.571Z,686.00
2023-03-17T06:03:45.539Z,738.00
2023-03-17T06:04:45.527Z,793.00
2023-03-17T06:05:45.476Z,797.00
2023-03-17T06:06:45.456Z,818.00
2023-03-17T06:07:53.927Z,836.00
2023-03-17T06:08:45.450Z,873.00
2023-03-17T06:09:45.442Z,923.00
2023-03-17T06:10:45.423Z,972.00
2023-03-17T06:11:45.420Z,1041.00
2023-03-17T06:12:45.405Z,1192.00
2023-03-17T06:13:45.407Z,1108.00
2023-03-17T06:14:45.392Z,1108.00
2023-03-17T06:15:45.396Z,1120.00
2023-03-17T06:16:45.367Z,1130.00
2023-03-17T06:17:45.352Z,1179.00
2023-03-17T06:18:45.351Z,1208.00
2023-03-17T06:19:46.763Z,1196.00
2023-03-17T06:20:45.331Z,1085.00
2023-03-17T06:21:45.313Z,948.00
2023-03-17T06:23:02.174Z,1225.00
2023-03-17T06:23:45.299Z,848.00
2023-03-17T06:24:45.297Z,1097.00
2023-03-17T06:25:45.280Z,1348.00
2023-03-17T06:26:45.264Z,1616.00
2023-03-17T06:27:45.256Z,1835.00
2023-03-17T06:28:45.252Z,2112.00
2023-03-17T06:29:45.236Z,5808.00
2023-03-17T06:30:45.604Z,5833.00
2023-03-17T06:31:45.210Z,4567.00
2023-03-17T06:32:45.249Z,3066.00
2023-03-17T06:33:45.191Z,1857.00
2023-03-17T06:34:45.709Z,1632.00
2023-03-17T06:35:45.188Z,1601.00
2023-03-17T06:36:45.168Z,1578.00
2023-03-17T06:37:45.168Z,1543.00
2023-03-17T06:38:45.138Z,1509.00
2023-03-17T06:39:45.160Z,1659.00
2023-03-17T06:40:45.122Z,1253.00
2023-03-17T06:41:45.105Z,1235.00
2023-03-17T06:42:45.103Z,3402.00
2023-03-17T06:43:45.093Z,4255.00
2023-03-17T06:44:45.102Z,1545.00
2023-03-17T06:45:45.065Z,5784.00
2023-03-17T06:46:45.133Z,2160.00
2023-03-17T06:47:45.047Z,10551.00
2023-03-17T06:48:45.045Z,6996.00
2023-03-17T06:49:45.276Z,1659.00
2023-03-17T06:50:45.018Z,1979.00
2023-03-17T06:51:45.003Z,3741.00
2023-03-17T06:52:46.693Z,4789.00
2023-03-17T06:53:45.003Z,8901.00
2023-03-17T06:54:45.002Z,17887.00
2023-03-17T06:55:44.983Z,12545.00
2023-03-17T06:56:45.019Z,8241.00
2023-03-17T06:57:44.943Z,6484.00
2023-03-17T06:58:44.935Z,5552.00
2023-03-17T06:59:45.257Z,4194.00
2023-03-17T07:00:44.920Z,8529.00
2023-03-17T07:01:44.968Z,16827.00
2023-03-17T07:02:44.895Z,7623.00
2023-03-17T07:03:44.878Z,7351.00
2023-03-17T07:04:44.968Z,9321.00
2023-03-17T07:05:44.863Z,14656.00
2023-03-17T07:06:44.865Z,11433.00
2023-03-17T07:07:44.840Z,11839.00
2023-03-17T07:08:44.840Z,14211.00
2023-03-17T07:09:45.157Z,15914.00
2023-03-17T07:10:44.844Z,10199.00
2023-03-17T07:11:44.816Z,14146.00
2023-03-17T07:12:44.818Z,22973.00
2023-03-17T07:13:44.777Z,13733.00
2023-03-17T07:14:44.807Z,14479.00
2023-03-17T07:15:44.753Z,17335.00
2023-03-17T07:16:44.804Z,16729.00
2023-03-17T07:17:44.739Z,15538.00
2023-03-17T07:18:44.737Z,16194.00
2023-03-17T07:19:45.644Z,19975.00
2023-03-17T07:20:44.713Z,13747.00
2023-03-17T07:21:46.909Z,15018.00
2023-03-17T07:22:44.695Z,19109.00
2023-03-17T07:23:44.706Z,18811.00
2023-03-17T07:24:44.998Z,17941.00
2023-03-17T07:25:44.655Z,17223.00
2023-03-17T07:26:44.651Z,14573.00
2023-03-17T07:27:44.641Z,16966.00
2023-03-17T07:28:44.629Z,21756.00
2023-03-17T07:29:44.702Z,23288.00
2023-03-17T07:30:44.639Z,20409.00
2023-03-17T07:31:44.712Z,16557.00
2023-03-17T07:32:44.740Z,20184.00
2023-03-17T07:33:44.570Z,18881.00
2023-03-17T07:34:44.918Z,21680.00
2023-03-17T07:35:44.595Z,22758.00
2023-03-17T07:36:44.556Z,19613.00
2023-03-17T07:37:44.536Z,18950.00
2023-03-17T07:38:44.544Z,14233.00
2023-03-17T07:39:45.242Z,17720.00
2023-03-17T07:40:44.523Z,18862.00
2023-03-17T07:41:44.499Z,19101.00
2023-03-17T07:42:44.492Z,17827.00
2023-03-17T07:43:44.499Z,18561.00
2023-03-17T07:44:44.779Z,18001.00
2023-03-17T07:45:44.517Z,18324.00
2023-03-17T07:46:44.462Z,17354.00
2023-03-17T07:47:44.453Z,13463.00
2023-03-17T07:48:44.445Z,13474.00
2023-03-17T07:49:45.289Z,15795.00
2023-03-17T07:50:44.433Z,12852.00
2023-03-17T07:51:44.428Z,14616.00
2023-03-17T07:52:44.430Z,11273.00
2023-03-17T07:53:44.431Z,12616.00
2023-03-17T07:54:44.385Z,13342.00
2023-03-17T07:55:44.384Z,10731.00
2023-03-17T07:56:44.376Z,14949.00
2023-03-17T07:57:44.399Z,13163.00
2023-03-17T07:58:44.351Z,11598.00
2023-03-17T07:59:44.346Z,11380.00
2023-03-17T08:00:44.344Z,8404.00
2023-03-17T08:01:44.363Z,10724.00
2023-03-17T08:02:44.368Z,13763.00
2023-03-17T08:03:44.371Z,17373.00
2023-03-17T08:04:44.313Z,14122.00
2023-03-17T08:05:44.295Z,11549.00
2023-03-17T08:06:44.296Z,12862.00
2023-03-17T08:07:44.315Z,15869.00
2023-03-17T08:08:44.271Z,11117.00
2023-03-17T08:09:44.300Z,10165.00
2023-03-17T08:10:44.255Z,13108.00
2023-03-17T08:11:44.230Z,13413.00
2023-03-17T08:12:44.246Z,15034.00
2023-03-17T08:13:44.213Z,8391.00
2023-03-17T08:14:44.209Z,11178.00
2023-03-17T08:15:44.209Z,19351.00
2023-03-17T08:16:44.250Z,22960.00
2023-03-17T08:17:44.172Z,20554.00
2023-03-17T08:18:44.166Z,13773.00
2023-03-17T08:19:44.165Z,14440.00
2023-03-17T08:20:44.205Z,14037.00
2023-03-17T08:21:44.131Z,9525.00
2023-03-17T08:22:44.154Z,10640.00
2023-03-17T08:23:44.156Z,8104.00
2023-03-17T08:24:44.124Z,4939.00
2023-03-17T08:25:44.133Z,4702.00
2023-03-17T08:26:44.128Z,4617.00
2023-03-17T08:27:44.088Z,4681.00
2023-03-17T08:28:44.067Z,4559.00
2023-03-17T08:29:44.057Z,4481.00
2023-03-17T08:30:44.092Z,4439.00
2023-03-17T08:31:46.442Z,4517.00
2023-03-17T08:32:44.045Z,4546.00
2023-03-17T08:33:44.008Z,4828.00
2023-03-17T08:34:44.008Z,4227.00
2023-03-17T08:35:44.105Z,4391.00
2023-03-17T08:36:44.001Z,4594.00
2023-03-17T08:37:43.970Z,4664.00
2023-03-17T08:38:43.963Z,4574.00
2023-03-17T08:39:43.951Z,4747.00
2023-03-17T08:40:43.954Z,3938.00
2023-03-17T08:41:43.932Z,4174.00
2023-03-17T08:42:43.926Z,4496.00
2023-03-17T08:43:43.915Z,4445.00
2023-03-17T08:44:44.253Z,4520.00
2023-03-17T08:45:43.939Z,5448.00
2023-03-17T08:46:43.882Z,4411.00
2023-03-17T08:47:43.881Z,4112.00
2023-03-17T08:48:43.869Z,5240.00
2023-03-17T08:49:43.863Z,4596.00
2023-03-17T08:50:43.852Z,4801.00
2023-03-17T08:51:43.836Z,4787.00
2023-03-17T08:52:43.829Z,4352.00
2023-03-17T08:53:43.808Z,4365.00
2023-03-17T08:54:43.803Z,4577.00
2023-03-17T08:55:43.792Z,4155.00
2023-03-17T08:56:43.805Z,4201.00
2023-03-17T08:57:43.767Z,4209.00
2023-03-17T08:58:43.766Z,4340.00
2023-03-17T08:59:43.743Z,4558.00
2023-03-17T09:00:43.741Z,4350.00
2023-03-17T09:01:43.738Z,4342.00
2023-03-17T09:02:43.783Z,4309.00
2023-03-17T09:03:43.712Z,4453.00
2023-03-17T09:04:43.700Z,4401.00
2023-03-17T09:05:43.700Z,4892.00
2023-03-17T09:07:01.173Z,5152.00
2023-03-17T09:07:43.888Z,4803.00
2023-03-17T09:08:43.674Z,4812.00
2023-03-17T09:09:43.644Z,4916.00
2023-03-17T09:10:44.483Z,5050.00
2023-03-17T09:11:43.629Z,5198.00
2023-03-17T09:12:43.626Z,4596.00
2023-03-17T09:13:43.617Z,4550.00
2023-03-17T09:14:44.886Z,4624.00
2023-03-17T09:15:43.909Z,4950.00
2023-03-17T09:16:43.593Z,4649.00
2023-03-17T09:17:43.569Z,4614.00
2023-03-17T09:18:43.559Z,5581.00
2023-03-17T09:19:43.777Z,4316.00
2023-03-17T09:20:44.457Z,5205.00
2023-03-17T09:21:43.533Z,4667.00
2023-03-17T09:22:43.529Z,4817.00
2023-03-17T09:23:43.520Z,4935.00
2023-03-17T09:24:43.497Z,5057.00
2023-03-17T09:25:43.819Z,4937.00
2023-03-17T09:26:43.483Z,4911.00
2023-03-17T09:27:43.474Z,4958.00
2023-03-17T09:28:43.466Z,4975.00
2023-03-17T09:29:43.458Z,5178.00
2023-03-17T09:30:44.165Z,5081.00
2023-03-17T09:31:43.425Z,4521.00
2023-03-17T09:32:43.457Z,4664.00
2023-03-17T09:33:43.403Z,5275.00
2023-03-17T09:34:43.395Z,4227.00
2023-03-17T09:35:43.805Z,4429.00
2023-03-17T09:36:43.379Z,4637.00
2023-03-17T09:37:43.369Z,4484.00
2023-03-17T09:38:43.343Z,4959.00
2023-03-17T09:39:43.335Z,3938.00
2023-03-17T09:40:44.156Z,4750.00
2023-03-17T09:41:43.303Z,3646.00
2023-03-17T09:42:43.309Z,4260.00
2023-03-17T09:43:43.292Z,4059.00
2023-03-17T09:44:43.290Z,4424.00
2023-03-17T09:45:43.878Z,4264.00
2023-03-17T09:46:43.343Z,4209.00
2023-03-17T09:47:43.242Z,4388.00
2023-03-17T09:48:43.238Z,4418.00
2023-03-17T09:49:43.222Z,3192.00
2023-03-17T09:50:43.733Z,3680.00
2023-03-17T09:51:43.211Z,4040.00
2023-03-17T09:52:43.200Z,3690.00
2023-03-17T09:53:43.175Z,4014.00
2023-03-17T09:54:43.173Z,3567.00
2023-03-17T09:55:43.492Z,3147.00
2023-03-17T09:56:43.155Z,3474.00
2023-03-17T09:57:43.129Z,3647.00
2023-03-17T09:58:43.126Z,4267.00
2023-03-17T09:59:43.106Z,2728.00
2023-03-17T10:00:43.888Z,3960.00
2023-03-17T10:01:43.161Z,2681.00
2023-03-17T10:02:43.081Z,3475.00
2023-03-17T10:03:43.091Z,3408.00
2023-03-17T10:04:43.072Z,2998.00
2023-03-17T10:05:43.434Z,3741.00
2023-03-17T10:06:43.042Z,3946.00
2023-03-17T10:07:43.020Z,3430.00
2023-03-17T10:08:43.013Z,3550.00
2023-03-17T10:09:43.010Z,3653.00
2023-03-17T10:10:43.320Z,3761.00
2023-03-17T10:11:42.981Z,3537.00
2023-03-17T10:12:42.977Z,4450.00
2023-03-17T10:13:42.959Z,4033.00
2023-03-17T10:14:42.961Z,2804.00
2023-03-17T10:15:42.974Z,3558.00
2023-03-17T10:16:42.929Z,3965.00
2023-03-17T10:17:42.919Z,3550.00
2023-03-17T10:18:42.903Z,3763.00
2023-03-17T10:19:42.898Z,3367.00
2023-03-17T10:20:43.232Z,3511.00
2023-03-17T10:21:42.869Z,3545.00
2023-03-17T10:22:42.880Z,3679.00
2023-03-17T10:23:42.852Z,3603.00
2023-03-17T10:24:42.852Z,3727.00
2023-03-17T10:25:43.169Z,3698.00
2023-03-17T10:26:42.829Z,3937.00
2023-03-17T10:27:42.817Z,3234.00
2023-03-17T10:28:42.808Z,3745.00
2023-03-17T10:29:42.804Z,3718.00
2023-03-17T10:30:43.687Z,3640.00
2023-03-17T10:31:42.804Z,3740.00
2023-03-17T10:32:42.810Z,3832.00
2023-03-17T10:33:42.757Z,4011.00
2023-03-17T10:34:42.751Z,3693.00
2023-03-17T10:35:43.083Z,3764.00
2023-03-17T10:36:42.717Z,3659.00
2023-03-17T10:37:43.968Z,3413.00
2023-03-17T10:38:42.696Z,4009.00
2023-03-17T10:39:42.698Z,3300.00
2023-03-17T10:40:43.440Z,3942.00
2023-03-17T10:41:42.677Z,3678.00
2023-03-17T10:42:42.651Z,4022.00
2023-03-17T10:43:42.646Z,4346.00
2023-03-17T10:44:42.635Z,4231.00
2023-03-17T10:45:44.918Z,4545.00
2023-03-17T10:46:42.651Z,4592.00
2023-03-17T10:47:42.605Z,4404.00
2023-03-17T10:48:42.587Z,4622.00
2023-03-17T10:49:42.578Z,4553.00
2023-03-17T10:50:42.574Z,4330.00
2023-03-17T10:51:42.569Z,4363.00
2023-03-17T10:52:42.565Z,5259.00
2023-03-17T10:53:42.548Z,4547.00
2023-03-17T10:54:42.527Z,4484.00
2023-03-17T10:55:42.573Z,4393.00
2023-03-17T10:56:42.537Z,4715.00
2023-03-17T10:57:42.500Z,4626.00
2023-03-17T10:58:42.500Z,5015.00
2023-03-17T10:59:44.336Z,4646.00
2023-03-17T11:00:42.466Z,4692.00
2023-03-17T11:01:42.456Z,4472.00
2023-03-17T11:02:42.443Z,5029.00
2023-03-17T11:03:42.481Z,4871.00
2023-03-17T11:04:42.425Z,4542.00
2023-03-17T11:05:42.551Z,4480.00
2023-03-17T11:06:42.398Z,4786.00
2023-03-17T11:07:42.397Z,4473.00
2023-03-17T11:08:42.383Z,4738.00
2023-03-17T11:09:42.375Z,4742.00
2023-03-17T11:10:42.355Z,4841.00
2023-03-17T11:11:42.363Z,4533.00
2023-03-17T11:12:42.339Z,4283.00
2023-03-17T11:13:42.328Z,4369.00
2023-03-17T11:14:42.309Z,4715.00
2023-03-17T11:15:42.336Z,4288.00
2023-03-17T11:16:42.332Z,4870.00
2023-03-17T11:17:42.279Z,4135.00
2023-03-17T11:18:42.269Z,4537.00
2023-03-17T11:19:42.260Z,4794.00
2023-03-17T11:20:42.269Z,4661.00
2023-03-17T11:21:42.239Z,4413.00
2023-03-17T11:22:42.212Z,4437.00
2023-03-17T11:23:42.217Z,4296.00
2023-03-17T11:24:42.226Z,4522.00
2023-03-17T11:25:42.187Z,4532.00
2023-03-17T11:26:42.174Z,4640.00
2023-03-17T11:27:42.171Z,5059.00
2023-03-17T11:28:42.148Z,4774.00
2023-03-17T11:29:42.153Z,4688.00
2023-03-17T11:30:42.123Z,4766.00
2023-03-17T11:31:42.143Z,4673.00
2023-03-17T11:32:42.252Z,4533.00
2023-03-17T11:33:42.099Z,4725.00
2023-03-17T11:34:42.088Z,4627.00
2023-03-17T11:35:42.133Z,4668.00
2023-03-17T11:36:42.059Z,4596.00
2023-03-17T11:37:42.055Z,4618.00
2023-03-17T11:38:42.031Z,4608.00
2023-03-17T11:39:42.027Z,4564.00
2023-03-17T11:40:42.009Z,4585.00
2023-03-17T11:41:42.003Z,4585.00
2023-03-17T11:42:41.987Z,4542.00
2023-03-17T11:43:41.974Z,4450.00
2023-03-17T11:44:41.967Z,4473.00
2023-03-17T11:45:41.971Z,4471.00
2023-03-17T11:46:41.939Z,4416.00
2023-03-17T11:47:41.934Z,4560.00
2023-03-17T11:48:41.912Z,4564.00
2023-03-17T11:49:41.906Z,4633.00
2023-03-17T11:50:41.888Z,4512.00
2023-03-17T11:51:41.884Z,4570.00
2023-03-17T11:52:41.891Z,4521.00
2023-03-17T11:53:41.853Z,4538.00
2023-03-17T11:54:41.843Z,4512.00
2023-03-17T11:55:41.846Z,4541.00
2023-03-17T11:56:41.832Z,4592.00
2023-03-17T11:57:41.824Z,4612.00
2023-03-17T11:58:41.785Z,4634.00
2023-03-17T11:59:41.778Z,4602.00
2023-03-17T12:00:42.902Z,4618.00
2023-03-17T12:01:41.756Z,4628.00
2023-03-17T12:02:41.734Z,4608.00
2023-03-17T12:03:41.740Z,4574.00
2023-03-17T12:04:41.739Z,4545.00
2023-03-17T12:05:41.699Z,4638.00
2023-03-17T12:06:41.684Z,4733.00
2023-03-17T12:07:41.677Z,4788.00
2023-03-17T12:08:41.665Z,5077.00
2023-03-17T12:09:41.650Z,5023.00
2023-03-17T12:10:41.641Z,5212.00
2023-03-17T12:11:41.635Z,5280.00
2023-03-17T12:12:41.648Z,5279.00
2023-03-17T12:13:41.601Z,5335.00
2023-03-17T12:14:41.588Z,5415.00
2023-03-17T12:15:41.612Z,5389.00
2023-03-17T12:16:41.898Z,5389.00
2023-03-17T12:17:41.558Z,5479.00
2023-03-17T12:18:41.552Z,5436.00
2023-03-17T12:19:41.527Z,5404.00
2023-03-17T12:20:41.521Z,5463.00
2023-03-17T12:21:41.514Z,5434.00
2023-03-17T12:22:41.486Z,5472.00
2023-03-17T12:23:41.484Z,5396.00
2023-03-17T12:24:41.466Z,5423.00
2023-03-17T12:25:41.463Z,5457.00
2023-03-17T12:26:41.464Z,5347.00
2023-03-17T12:27:41.440Z,5362.00
2023-03-17T12:28:41.417Z,5336.00
2023-03-17T12:29:41.439Z,5292.00
2023-03-17T12:30:41.388Z,5303.00
2023-03-17T12:31:41.397Z,5292.00
2023-03-17T12:32:41.381Z,5293.00
2023-03-17T12:33:41.407Z,5286.00
2023-03-17T12:34:41.362Z,5302.00